TimeCDT,TemperatureF,Dew PointF,Humidity,Sea Level PressureIn,VisibilityMPH,Wind Direction,Wind SpeedMPH,Gust SpeedMPH,PrecipitationIn,Events,Conditions,WindDirDegrees,DateUTC
12:55 AM,64.0,45.0,50,30.11,10.0,Calm,Calm,-,N/A,,Clear,0,2012-09-09 05:55:00
1:55 AM,59.7,46.6,62,30.11,10.0,Calm,Calm,-,N/A,,Clear,0,2012-09-09 06:55:00
2:55 AM,63.3,45.9,53,30.10,10.0,West,3.5,-,N/A,,Clear,270,2012-09-09 07:55:00
3:55 AM,61.2,46.6,59,30.11,10.0,WNW,5.8,-,N/A,,Clear,290,2012-09-09 08:55:00
4:55 AM,57.4,46.0,66,30.11,10.0,NNW,3.5,-,N/A,,Clear,330,2012-09-09 09:55:00
5:55 AM,55.8,44.6,66,30.13,10.0,Calm,Calm,-,N/A,,Clear,0,2012-09-09 10:55:00
6:55 AM,54.0,46.2,75,30.14,10.0,NNE,4.6,-,N/A,,Clear,20,2012-09-09 11:55:00
7:55 AM,52.7,48.7,86,30.16,10.0,NNE,3.5,-,N/A,,Clear,20,2012-09-09 12:55:00
8:55 AM,62.6,50.4,64,30.16,10.0,NNE,3.5,-,N/A,,Clear,30,2012-09-09 13:55:00
9:55 AM,72.0,47.7,42,30.17,10.0,Calm,Calm,-,N/A,,Clear,0,2012-09-09 14:55:00
10:55 AM,78.1,45.1,31,30.17,10.0,West,4.6,-,N/A,,Clear,280,2012-09-09 15:55:00
11:55 AM,83.8,43.0,24,30.15,10.0,Variable,4.6,-,N/A,,Clear,0,2012-09-09 16:55:00
12:55 PM,85.6,39.7,20,30.14,10.0,NW,5.8,-,N/A,,Clear,310,2012-09-09 17:55:00
1:55 PM,88.9,37.8,16,30.12,10.0,East,4.6,-,N/A,,Clear,90,2012-09-09 18:55:00
2:55 PM,89.6,38.1,16,30.09,10.0,Variable,5.8,-,N/A,,Clear,0,2012-09-09 19:55:00
3:55 PM,90.1,37.2,15,30.07,10.0,ENE,8.1,-,N/A,,Clear,60,2012-09-09 20:55:00
4:55 PM,90.1,38.8,16,30.06,10.0,South,5.8,-,N/A,,Clear,190,2012-09-09 21:55:00
5:55 PM,90.0,39.2,17,30.05,10.0,South,8.1,-,N/A,,Clear,170,2012-09-09 22:55:00
6:55 PM,88.3,38.3,17,30.05,10.0,South,8.1,-,N/A,,Clear,170,2012-09-09 23:55:00
7:55 PM,80.8,41.7,25,30.05,10.0,South,5.8,-,N/A,,Clear,170,2012-09-10 00:55:00
8:55 PM,76.6,40.6,27,30.06,10.0,SSW,4.6,-,N/A,,Clear,210,2012-09-10 01:55:00
9:55 PM,75.7,42.1,30,30.07,10.0,SW,5.8,-,N/A,,Clear,220,2012-09-10 02:55:00
10:55 PM,64.6,46.8,52,30.07,10.0,Calm,Calm,-,N/A,,Clear,0,2012-09-10 03:55:00
11:55 PM,68.5,46.6,45,30.07,10.0,Calm,Calm,-,N/A,,Clear,0,2012-09-10 04:55:00